Time;durP1;ratioP1;P1;durP2;ratioP2;P2;SDS_P1;SDS_P2;PMS_P1;PMS_P2;Temp;Humidity;BMP_temperature;BMP_pressure;BME280_temperature;BME280_humidity;BME280_pressure;Samples;Min_cycle;Max_cycle;Signal;HPM_P1;HPM_P2
2021/04/30 00:01:54;;;;;;;11.65;10.55;;;;;;;;;;5094969;28;20204;-61
2021/04/30 00:04:21;;;;;;;12.15;11.00;;;;;;;;;;5095041;28;20605;-61
2021/04/30 00:06:48;;;;;;;13.02;11.93;;;;;;;;;;5095326;28;20228;-60
2021/04/30 00:09:15;;;;;;;12.35;11.15;;;;;;;;;;5094285;28;20702;-61
2021/04/30 00:11:41;;;;;;;12.70;11.50;;;;;;;;;;5094072;28;20656;-61
2021/04/30 00:14:08;;;;;;;13.55;12.38;;;;;;;;;;5094020;28;20197;-61
2021/04/30 00:16:39;;;;;;;13.70;12.45;;;;;;;;;;5093650;28;20200;-61
2021/04/30 00:19:06;;;;;;;14.32;13.02;;;;;;;;;;5093583;28;20244;-61
2021/04/30 00:21:33;;;;;;;13.52;12.30;;;;;;;;;;5093876;28;20574;-61
2021/04/30 00:24:00;;;;;;;13.45;12.05;;;;;;;;;;5096100;28;20204;-61
2021/04/30 00:26:27;;;;;;;13.90;12.60;;;;;;;;;;5097306;28;20660;-61
2021/04/30 00:28:54;;;;;;;14.57;12.63;;;;;;;;;;5097548;28;20224;-61
2021/04/30 00:31:21;;;;;;;13.63;12.27;;;;;;;;;;5097314;28;20205;-61
2021/04/30 00:33:49;;;;;;;14.55;13.05;;;;;;;;;;5097584;28;20274;-60
2021/04/30 00:36:15;;;;;;;15.60;13.13;;;;;;;;;;5097110;28;20253;-61
2021/04/30 00:38:42;;;;;;;15.27;13.75;;;;;;;;;;5096900;28;20225;-61
2021/04/30 00:41:09;;;;;;;14.68;12.90;;;;;;;;;;5096983;28;20204;-61
2021/04/30 00:43:36;;;;;;;15.50;13.70;;;;;;;;;;5097189;28;20552;-61
2021/04/30 00:46:03;;;;;;;15.75;14.15;;;;;;;;;;5097134;28;20201;-61
2021/04/30 00:48:30;;;;;;;15.80;13.40;;;;;;;;;;5096772;28;20667;-61
2021/04/30 00:50:58;;;;;;;16.35;14.65;;;;;;;;;;5096791;28;20696;-61
2021/04/30 00:53:24;;;;;;;14.82;13.43;;;;;;;;;;5096743;28;20204;-61
2021/04/30 00:55:51;;;;;;;15.95;14.40;;;;;;;;;;5096983;28;20204;-61
2021/04/30 00:58:18;;;;;;;17.38;15.57;;;;;;;;;;5097083;28;20220;-61
2021/04/30 01:00:45;;;;;;;17.20;15.38;;;;;;;;;;5096687;28;20204;-61
2021/04/30 01:03:12;;;;;;;17.95;15.43;;;;;;;;;;5096554;28;20208;-59
2021/04/30 01:05:39;;;;;;;18.20;16.30;;;;;;;;;;5096852;28;20200;-60
2021/04/30 01:08:07;;;;;;;18.10;16.20;;;;;;;;;;5096501;28;20220;-61
2021/04/30 01:10:33;;;;;;;17.58;15.85;;;;;;;;;;5096706;28;20196;-61
2021/04/30 01:13:01;;;;;;;18.50;16.38;;;;;;;;;;5096794;28;20222;-61
2021/04/30 01:15:28;;;;;;;18.98;17.08;;;;;;;;;;5096524;28;20204;-61
2021/04/30 01:17:54;;;;;;;18.30;16.40;;;;;;;;;;5096629;28;20278;-61
2021/04/30 01:20:22;;;;;;;19.17;17.15;;;;;;;;;;5096433;28;20208;-61
2021/04/30 01:22:51;;;;;;;19.75;17.17;;;;;;;;;;5096500;28;20628;-61
2021/04/30 01:25:18;;;;;;;20.23;18.13;;;;;;;;;;5096137;28;20668;-61
2021/04/30 01:27:45;;;;;;;18.95;16.95;;;;;;;;;;5095904;28;20228;-61
2021/04/30 01:30:13;;;;;;;18.60;16.55;;;;;;;;;;5096061;28;20207;-61
2021/04/30 01:32:40;;;;;;;19.38;17.38;;;;;;;;;;5096079;28;20204;-61
2021/04/30 01:35:08;;;;;;;18.33;16.42;;;;;;;;;;5095340;28;20211;-61
2021/04/30 01:37:35;;;;;;;20.42;17.27;;;;;;;;;;5096145;28;20221;-62
2021/04/30 01:40:03;;;;;;;18.15;16.20;;;;;;;;;;5096079;28;20197;-61
2021/04/30 01:42:30;;;;;;;19.73;17.63;;;;;;;;;;5095735;28;20205;-61
2021/04/30 01:44:57;;;;;;;19.50;16.85;;;;;;;;;;5095674;28;20200;-61
2021/04/30 01:47:24;;;;;;;21.77;19.45;;;;;;;;;;5096066;28;20220;-61
2021/04/30 01:49:50;;;;;;;21.17;18.23;;;;;;;;;;5096160;28;20220;-61
2021/04/30 01:52:17;;;;;;;22.23;19.20;;;;;;;;;;5096030;28;20674;-61
2021/04/30 01:54:48;;;;;;;21.27;18.98;;;;;;;;;;5095698;28;20693;-61
2021/04/30 01:57:16;;;;;;;20.88;17.92;;;;;;;;;;5095837;28;20307;-62
2021/04/30 01:59:43;;;;;;;23.63;20.08;;;;;;;;;;5095451;28;20246;-62
2021/04/30 02:02:09;;;;;;;22.92;20.40;;;;;;;;;;5095483;28;20667;-60
2021/04/30 02:04:36;;;;;;;21.73;19.42;;;;;;;;;;5095565;28;20234;-61
2021/04/30 02:07:14;;;;;;;26.52;22.17;;;;;;;;;;5095681;28;20207;-62
2021/04/30 02:09:41;;;;;;;24.85;21.05;;;;;;;;;;5095357;28;20224;-61
2021/04/30 02:12:08;;;;;;;28.20;23.40;;;;;;;;;;5095527;28;20207;-61
2021/04/30 02:14:36;;;;;;;26.33;23.15;;;;;;;;;;5095547;28;20200;-61
2021/04/30 02:17:02;;;;;;;26.92;22.10;;;;;;;;;;5095378;28;20205;-61
2021/04/30 02:19:29;;;;;;;24.25;21.63;;;;;;;;;;5095465;28;20200;-61
2021/04/30 02:21:57;;;;;;;26.75;23.88;;;;;;;;;;5095124;28;20204;-61
2021/04/30 02:24:24;;;;;;;26.88;23.40;;;;;;;;;;5095229;28;20204;-61
2021/04/30 02:26:50;;;;;;;28.33;23.38;;;;;;;;;;5095237;28;20556;-61
2021/04/30 02:29:17;;;;;;;26.88;23.33;;;;;;;;;;5095021;28;20212;-61
2021/04/30 02:31:45;;;;;;;26.20;22.45;;;;;;;;;;5095312;28;20208;-61
2021/04/30 02:34:12;;;;;;;26.85;22.85;;;;;;;;;;5095122;28;20212;-61
2021/04/30 02:36:38;;;;;;;26.20;23.02;;;;;;;;;;5094892;28;20200;-61
2021/04/30 02:39:06;;;;;;;26.85;22.73;;;;;;;;;;5095869;28;20212;-61
2021/04/30 02:41:33;;;;;;;24.80;21.67;;;;;;;;;;5095483;28;20231;-61
2021/04/30 02:44:00;;;;;;;24.80;22.20;;;;;;;;;;5097146;28;20682;-60
2021/04/30 02:46:26;;;;;;;27.30;23.85;;;;;;;;;;5095065;28;20733;-60
2021/04/30 02:49:01;;;;;;;24.83;22.13;;;;;;;;;;5094950;28;20266;-61
2021/04/30 02:51:28;;;;;;;24.88;22.00;;;;;;;;;;5095458;28;20238;-60
2021/04/30 02:53:55;;;;;;;24.83;22.10;;;;;;;;;;5094636;28;20663;-61
2021/04/30 02:56:22;;;;;;;23.48;20.52;;;;;;;;;;5094491;28;20550;-61
2021/04/30 02:58:53;;;;;;;24.10;21.52;;;;;;;;;;5094342;28;20216;-61
2021/04/30 03:01:20;;;;;;;24.08;21.58;;;;;;;;;;5094327;28;20671;-61
2021/04/30 03:03:47;;;;;;;23.52;21.02;;;;;;;;;;5094592;28;20269;-61
2021/04/30 03:06:15;;;;;;;25.60;22.08;;;;;;;;;;5094500;28;20293;-61
2021/04/30 03:08:41;;;;;;;24.08;20.42;;;;;;;;;;5094537;28;20584;-61
2021/04/30 03:11:08;;;;;;;23.17;20.13;;;;;;;;;;5094241;28;20208;-61
2021/04/30 03:13:35;;;;;;;24.20;21.70;;;;;;;;;;5094322;28;20212;-61
2021/04/30 03:16:01;;;;;;;23.83;21.10;;;;;;;;;;5094987;28;20208;-61
2021/04/30 03:18:28;;;;;;;25.23;22.15;;;;;;;;;;5094402;28;20277;-61
2021/04/30 03:20:56;;;;;;;23.95;21.33;;;;;;;;;;5094576;28;20208;-60
2021/04/30 03:23:24;;;;;;;26.02;23.42;;;;;;;;;;5094339;28;20579;-61
2021/04/30 03:25:50;;;;;;;25.55;22.02;;;;;;;;;;5094179;28;20231;-61
2021/04/30 03:28:17;;;;;;;26.45;23.65;;;;;;;;;;5094281;28;20307;-60
2021/04/30 03:30:44;;;;;;;25.05;22.38;;;;;;;;;;5094008;28;20245;-62
2021/04/30 03:33:11;;;;;;;25.55;22.70;;;;;;;;;;5094629;28;20200;-62
2021/04/30 03:35:37;;;;;;;28.20;22.85;;;;;;;;;;5094485;28;20196;-61
2021/04/30 03:38:04;;;;;;;25.38;22.58;;;;;;;;;;5094426;28;20221;-60
2021/04/30 03:40:32;;;;;;;28.45;24.05;;;;;;;;;;5094321;28;20215;-61
2021/04/30 03:42:59;;;;;;;28.10;24.10;;;;;;;;;;5094000;28;20204;-61
2021/04/30 03:45:26;;;;;;;27.85;24.98;;;;;;;;;;5093561;28;20613;-61
2021/04/30 03:47:52;;;;;;;27.95;24.98;;;;;;;;;;5093324;28;20224;-61
2021/04/30 03:50:19;;;;;;;28.80;23.95;;;;;;;;;;5093407;28;20207;-61
2021/04/30 03:52:46;;;;;;;30.20;26.17;;;;;;;;;;5094104;28;20200;-61
2021/04/30 03:55:13;;;;;;;28.55;25.02;;;;;;;;;;5093737;28;20208;-61
2021/04/30 03:57:40;;;;;;;29.25;25.30;;;;;;;;;;5093431;28;20220;-62
2021/04/30 04:00:07;;;;;;;28.35;24.73;;;;;;;;;;5093663;28;20249;-60
2021/04/30 04:02:34;;;;;;;28.67;25.67;;;;;;;;;;5093412;28;20261;-61
2021/04/30 04:08:01;;;;;;;30.43;25.67;;;;;;;;;;5115930;27;865806;-61
2021/04/30 04:10:28;;;;;;;29.35;25.13;;;;;;;;;;5132064;28;20199;-61
2021/04/30 04:12:55;;;;;;;30.10;26.23;;;;;;;;;;5132163;28;20214;-62
2021/04/30 04:15:22;;;;;;;28.42;25.23;;;;;;;;;;5132140;28;20207;-61
2021/04/30 04:17:48;;;;;;;29.50;25.80;;;;;;;;;;5131859;27;20211;-61
2021/04/30 04:20:15;;;;;;;28.85;25.60;;;;;;;;;;5131910;28;20199;-61
2021/04/30 04:22:42;;;;;;;29.92;25.13;;;;;;;;;;5132053;28;20207;-61
2021/04/30 04:25:10;;;;;;;29.63;26.50;;;;;;;;;;5131775;28;20572;-61
2021/04/30 04:27:37;;;;;;;31.55;26.73;;;;;;;;;;5131592;27;20227;-61
2021/04/30 04:30:07;;;;;;;30.45;26.50;;;;;;;;;;5131701;28;20371;-61
2021/04/30 04:32:33;;;;;;;30.00;26.50;;;;;;;;;;5131680;28;20654;-62
2021/04/30 04:35:00;;;;;;;32.60;27.95;;;;;;;;;;5130990;28;20689;-61
2021/04/30 04:37:27;;;;;;;30.83;27.27;;;;;;;;;;5131338;27;20215;-61
2021/04/30 04:39:54;;;;;;;29.15;24.42;;;;;;;;;;5132322;28;20252;-61
2021/04/30 04:42:21;;;;;;;29.45;25.40;;;;;;;;;;5140017;28;20195;-61
2021/04/30 04:44:48;;;;;;;30.55;27.35;;;;;;;;;;5132423;28;20225;-61
2021/04/30 04:47:15;;;;;;;29.02;25.90;;;;;;;;;;5132383;27;20641;-62
2021/04/30 04:49:41;;;;;;;30.52;25.63;;;;;;;;;;5132543;28;20202;-61
2021/04/30 04:52:08;;;;;;;30.23;25.75;;;;;;;;;;5132762;28;20276;-60
2021/04/30 04:54:35;;;;;;;29.80;26.60;;;;;;;;;;5132584;28;20253;-60
2021/04/30 04:57:02;;;;;;;31.13;25.63;;;;;;;;;;5133033;27;20635;-61
2021/04/30 04:59:29;;;;;;;29.67;25.15;;;;;;;;;;5132427;28;20203;-61
2021/04/30 05:01:56;;;;;;;28.65;25.65;;;;;;;;;;5132497;28;20257;-61
2021/04/30 05:04:23;;;;;;;29.27;26.02;;;;;;;;;;5132970;28;20229;-60
2021/04/30 05:06:49;;;;;;;29.08;25.85;;;;;;;;;;5131731;28;20740;-62
2021/04/30 05:09:16;;;;;;;29.08;24.92;;;;;;;;;;5133032;27;20219;-61
2021/04/30 05:11:43;;;;;;;32.45;27.20;;;;;;;;;;5141924;28;20214;-60
2021/04/30 05:14:10;;;;;;;34.40;26.77;;;;;;;;;;5144506;28;20203;-60
2021/04/30 05:16:37;;;;;;;28.77;25.85;;;;;;;;;;5146364;28;20196;-61
2021/04/30 05:19:04;;;;;;;30.60;27.30;;;;;;;;;;5133370;27;20249;-62
2021/04/30 05:21:32;;;;;;;34.85;28.55;;;;;;;;;;5119117;28;20196;-60
2021/04/30 05:23:59;;;;;;;30.00;26.42;;;;;;;;;;5120588;28;20200;-60
2021/04/30 05:26:28;;;;;;;31.08;27.60;;;;;;;;;;5123978;28;20211;-61
2021/04/30 05:28:57;;;;;;;32.22;27.33;;;;;;;;;;5123842;28;20220;-61
2021/04/30 05:31:23;;;;;;;34.72;27.08;;;;;;;;;;5120253;28;20609;-61
2021/04/30 05:33:51;;;;;;;31.77;28.38;;;;;;;;;;5117453;28;20568;-62
2021/04/30 05:36:18;;;;;;;36.15;28.73;;;;;;;;;;5117385;28;20196;-61
2021/04/30 05:38:45;;;;;;;32.55;27.80;;;;;;;;;;5116883;28;20220;-61
2021/04/30 05:41:11;;;;;;;32.97;27.65;;;;;;;;;;5117209;28;20196;-63
2021/04/30 05:43:38;;;;;;;34.25;29.33;;;;;;;;;;5117440;28;20203;-61
2021/04/30 05:46:05;;;;;;;34.78;30.05;;;;;;;;;;5116368;28;20226;-62
2021/04/30 05:48:32;;;;;;;34.97;29.15;;;;;;;;;;5116369;28;20215;-60
2021/04/30 05:50:59;;;;;;;31.83;28.00;;;;;;;;;;5116779;28;20257;-61
2021/04/30 05:53:27;;;;;;;34.60;29.13;;;;;;;;;;5116265;28;20666;-61
2021/04/30 05:55:54;;;;;;;36.55;29.38;;;;;;;;;;5116491;28;20316;-62
2021/04/30 05:58:21;;;;;;;36.25;30.98;;;;;;;;;;5117625;28;20284;-62
2021/04/30 06:00:48;;;;;;;35.30;30.67;;;;;;;;;;5116865;28;20210;-61
2021/04/30 06:03:14;;;;;;;35.58;31.73;;;;;;;;;;5116805;28;20203;-62
2021/04/30 06:05:41;;;;;;;33.72;29.83;;;;;;;;;;5116118;28;20233;-62
2021/04/30 06:08:09;;;;;;;40.00;31.88;;;;;;;;;;5115833;28;20236;-62
2021/04/30 06:10:35;;;;;;;36.17;31.17;;;;;;;;;;5116000;28;20207;-61
2021/04/30 06:13:06;;;;;;;38.08;30.00;;;;;;;;;;5115837;28;20207;-62
2021/04/30 06:15:33;;;;;;;35.05;30.55;;;;;;;;;;5115961;28;20207;-62
2021/04/30 06:18:00;;;;;;;35.25;29.25;;;;;;;;;;5116641;28;20219;-60
2021/04/30 06:20:27;;;;;;;37.30;30.35;;;;;;;;;;5116068;28;20199;-61
2021/04/30 06:22:54;;;;;;;39.20;31.63;;;;;;;;;;5115227;28;20199;-62
2021/04/30 06:25:21;;;;;;;38.35;30.25;;;;;;;;;;5115639;28;20204;-63
2021/04/30 06:27:48;;;;;;;36.38;30.83;;;;;;;;;;5115609;28;20223;-60
2021/04/30 06:30:16;;;;;;;36.10;29.05;;;;;;;;;;5114332;28;20214;-61
2021/04/30 06:32:44;;;;;;;34.33;30.63;;;;;;;;;;5115735;28;20299;-60
2021/04/30 06:35:11;;;;;;;36.85;30.83;;;;;;;;;;5116033;28;20545;-61
2021/04/30 06:37:39;;;;;;;39.08;30.65;;;;;;;;;;5116952;28;20601;-61
2021/04/30 06:40:07;;;;;;;35.92;31.73;;;;;;;;;;5115998;28;20736;-61
2021/04/30 06:42:35;;;;;;;36.83;31.13;;;;;;;;;;5116206;28;20290;-60
2021/04/30 06:45:02;;;;;;;34.63;28.35;;;;;;;;;;5116138;28;20232;-61
2021/04/30 06:47:29;;;;;;;37.70;31.90;;;;;;;;;;5115273;28;20234;-61
2021/04/30 06:49:56;;;;;;;38.75;31.55;;;;;;;;;;5115334;28;20296;-60
2021/04/30 06:52:23;;;;;;;39.58;30.70;;;;;;;;;;5115528;28;20199;-61
2021/04/30 06:54:51;;;;;;;34.78;30.77;;;;;;;;;;5114998;28;20239;-60
2021/04/30 06:57:18;;;;;;;36.50;30.40;;;;;;;;;;5115108;28;20216;-62
2021/04/30 06:59:46;;;;;;;37.25;28.90;;;;;;;;;;5115566;28;20200;-59
2021/04/30 07:02:13;;;;;;;36.10;29.83;;;;;;;;;;5116018;28;20210;-60
2021/04/30 07:04:40;;;;;;;34.90;29.15;;;;;;;;;;5116083;28;20204;-60
2021/04/30 07:07:07;;;;;;;34.85;30.98;;;;;;;;;;5116241;28;20277;-60
2021/04/30 07:09:34;;;;;;;35.30;31.42;;;;;;;;;;5116393;28;20678;-60
2021/04/30 07:12:02;;;;;;;34.22;30.60;;;;;;;;;;5115770;28;20694;-60
2021/04/30 07:14:29;;;;;;;34.55;30.17;;;;;;;;;;5116507;28;20246;-60
2021/04/30 07:16:57;;;;;;;32.53;28.65;;;;;;;;;;5116763;28;20235;-60
2021/04/30 07:19:24;;;;;;;32.72;29.20;;;;;;;;;;5116239;28;20674;-61
2021/04/30 07:21:51;;;;;;;33.33;29.70;;;;;;;;;;5116823;28;20210;-59
2021/04/30 07:24:18;;;;;;;37.25;30.25;;;;;;;;;;5116356;28;20499;-59
2021/04/30 07:26:45;;;;;;;35.30;30.92;;;;;;;;;;5118790;28;20231;-60
2021/04/30 07:29:12;;;;;;;36.13;30.48;;;;;;;;;;5120794;28;20249;-59
2021/04/30 07:31:39;;;;;;;33.87;29.07;;;;;;;;;;5125694;28;20223;-59
2021/04/30 07:34:07;;;;;;;32.25;28.65;;;;;;;;;;5128015;28;20451;-60
2021/04/30 07:36:34;;;;;;;30.83;27.77;;;;;;;;;;5126515;28;20262;-60
2021/04/30 07:39:02;;;;;;;32.97;28.67;;;;;;;;;;5125368;28;20476;-61
2021/04/30 07:41:29;;;;;;;32.73;29.43;;;;;;;;;;5118041;28;20442;-60
2021/04/30 07:43:56;;;;;;;30.80;26.77;;;;;;;;;;5115910;28;20445;-61
2021/04/30 07:46:23;;;;;;;32.00;27.20;;;;;;;;;;5115399;28;20508;-61
2021/04/30 07:48:50;;;;;;;29.67;26.57;;;;;;;;;;5119356;28;20457;-60
2021/04/30 07:51:17;;;;;;;27.53;24.73;;;;;;;;;;5127778;28;20471;-60
2021/04/30 07:53:44;;;;;;;28.47;25.67;;;;;;;;;;5127607;28;20441;-59
2021/04/30 07:56:12;;;;;;;27.90;24.97;;;;;;;;;;5127773;28;20442;-61
2021/04/30 07:58:39;;;;;;;30.10;26.40;;;;;;;;;;5128187;28;20465;-61
2021/04/30 08:01:05;;;;;;;29.27;26.27;;;;;;;;;;5125825;28;20453;-61
2021/04/30 08:03:32;;;;;;;30.37;27.10;;;;;;;;;;5123859;28;20445;-61
2021/04/30 08:05:59;;;;;;;32.43;29.10;;;;;;;;;;5122876;28;20445;-62
2021/04/30 08:08:27;;;;;;;28.63;25.60;;;;;;;;;;5123206;28;20473;-60
2021/04/30 08:10:54;;;;;;;29.20;26.10;;;;;;;;;;5124122;28;20444;-60
2021/04/30 08:13:21;;;;;;;30.67;27.37;;;;;;;;;;5123168;28;20444;-60
2021/04/30 08:15:48;;;;;;;27.20;24.43;;;;;;;;;;5124525;28;20482;-60
2021/04/30 08:18:14;;;;;;;30.17;23.87;;;;;;;;;;5123028;28;20453;-61
2021/04/30 08:20:41;;;;;;;30.07;26.30;;;;;;;;;;5120193;28;20441;-59
2021/04/30 08:23:08;;;;;;;31.60;26.70;;;;;;;;;;5114634;28;20450;-60
2021/04/30 08:25:36;;;;;;;29.57;25.97;;;;;;;;;;5122888;28;20467;-61
2021/04/30 08:28:02;;;;;;;31.10;25.97;;;;;;;;;;5123236;28;20489;-62
2021/04/30 08:30:29;;;;;;;28.10;25.03;;;;;;;;;;5116771;28;20445;-61
2021/04/30 08:32:56;;;;;;;30.00;26.63;;;;;;;;;;5113669;28;20445;-61
2021/04/30 08:35:23;;;;;;;26.17;23.37;;;;;;;;;;5114102;28;20446;-62
2021/04/30 08:37:50;;;;;;;26.77;24.00;;;;;;;;;;5113868;28;20507;-63
2021/04/30 08:40:17;;;;;;;24.60;22.10;;;;;;;;;;5113745;28;20449;-61
2021/04/30 08:42:45;;;;;;;23.47;20.97;;;;;;;;;;5114236;28;20934;-62
2021/04/30 08:45:16;;;;;;;22.80;20.40;;;;;;;;;;5114875;28;20470;-62
2021/04/30 08:47:44;;;;;;;24.57;22.00;;;;;;;;;;5114818;28;20555;-63
2021/04/30 08:50:11;;;;;;;23.73;21.13;;;;;;;;;;5115043;28;20449;-61
2021/04/30 08:52:38;;;;;;;23.40;20.93;;;;;;;;;;5114671;28;20441;-61
2021/04/30 08:55:09;;;;;;;25.73;23.10;;;;;;;;;;5119350;28;20455;-60
2021/04/30 08:57:37;;;;;;;25.20;19.90;;;;;;;;;;5123399;28;20466;-60
2021/04/30 09:00:08;;;;;;;22.00;19.70;;;;;;;;;;5121714;28;20561;-60
2021/04/30 09:02:38;;;;;;;20.10;18.20;;;;;;;;;;5120655;28;20443;-59
2021/04/30 09:05:06;;;;;;;20.83;18.73;;;;;;;;;;5121036;28;20452;-59
2021/04/30 09:07:34;;;;;;;20.73;18.10;;;;;;;;;;5118470;28;21004;-60
2021/04/30 09:10:02;;;;;;;21.00;19.00;;;;;;;;;;5118749;28;20460;-59
2021/04/30 09:12:29;;;;;;;22.47;20.27;;;;;;;;;;5118751;28;20544;-60
2021/04/30 09:14:57;;;;;;;23.00;20.77;;;;;;;;;;5119095;28;20455;-60
2021/04/30 09:17:27;;;;;;;21.33;19.33;;;;;;;;;;5119360;28;20463;-59
2021/04/30 09:19:56;;;;;;;22.23;20.23;;;;;;;;;;5118924;28;20450;-61
2021/04/30 09:22:24;;;;;;;21.17;19.07;;;;;;;;;;5118333;28;20445;-60
2021/04/30 09:24:55;;;;;;;19.37;17.47;;;;;;;;;;5118346;28;20442;-60
2021/04/30 09:27:32;;;;;;;21.63;19.37;;;;;;;;;;5118168;28;20995;-60
2021/04/30 09:30:16;;;;;;;21.47;19.40;;;;;;;;;;5118052;28;20421;-59
2021/04/30 09:32:58;;;;;;;20.10;18.20;;;;;;;;;;5119349;28;20919;-60
2021/04/30 09:35:26;;;;;;;22.20;19.97;;;;;;;;;;5116923;28;21013;-60
2021/04/30 09:37:53;;;;;;;21.80;19.60;;;;;;;;;;5119228;28;20461;-60
2021/04/30 09:40:26;;;;;;;21.57;19.40;;;;;;;;;;5120201;28;20441;-60
2021/04/30 09:43:02;;;;;;;20.97;18.87;;;;;;;;;;5119071;28;20429;-59
2021/04/30 09:45:31;;;;;;;22.50;20.23;;;;;;;;;;5123137;28;20441;-62
2021/04/30 09:47:59;;;;;;;22.10;19.80;;;;;;;;;;5119034;28;20488;-61
2021/04/30 09:50:28;;;;;;;22.70;20.30;;;;;;;;;;5117038;28;20527;-61
2021/04/30 09:52:55;;;;;;;22.87;20.47;;;;;;;;;;5117480;28;20810;-62
2021/04/30 09:55:22;;;;;;;21.33;19.00;;;;;;;;;;5116735;28;20448;-62
2021/04/30 09:57:50;;;;;;;23.90;20.57;;;;;;;;;;5116631;28;20492;-61
2021/04/30 10:00:17;;;;;;;23.60;21.17;;;;;;;;;;5116590;28;20948;-62
2021/04/30 10:02:46;;;;;;;23.13;20.83;;;;;;;;;;5116640;28;20457;-62
2021/04/30 10:05:14;;;;;;;23.00;20.47;;;;;;;;;;5116120;28;20506;-62
2021/04/30 10:07:42;;;;;;;22.47;20.20;;;;;;;;;;5115340;28;20493;-62
2021/04/30 10:10:10;;;;;;;21.93;19.77;;;;;;;;;;5116398;28;20442;-62
2021/04/30 10:12:38;;;;;;;21.77;19.23;;;;;;;;;;5115803;28;20448;-62
2021/04/30 10:15:05;;;;;;;21.50;19.30;;;;;;;;;;5115996;28;20437;-63
2021/04/30 10:17:32;;;;;;;20.67;18.47;;;;;;;;;;5116160;28;20462;-61
2021/04/30 10:19:59;;;;;;;21.03;19.03;;;;;;;;;;5117067;28;20452;-62
2021/04/30 10:22:26;;;;;;;22.10;20.00;;;;;;;;;;5116687;28;20495;-61
2021/04/30 10:24:55;;;;;;;20.60;18.60;;;;;;;;;;5116399;28;20441;-62
2021/04/30 10:27:26;;;;;;;22.67;20.27;;;;;;;;;;5116060;28;20481;-61
2021/04/30 10:30:00;;;;;;;21.83;19.70;;;;;;;;;;5117080;28;20828;-62
2021/04/30 10:32:28;;;;;;;21.60;19.50;;;;;;;;;;5116623;28;20436;-62
2021/04/30 10:34:56;;;;;;;21.27;19.17;;;;;;;;;;5115629;28;20441;-61
2021/04/30 10:37:26;;;;;;;23.20;20.80;;;;;;;;;;5115463;28;20477;-62
2021/04/30 10:39:58;;;;;;;22.03;19.50;;;;;;;;;;5115844;28;20430;-62
2021/04/30 10:42:28;;;;;;;20.50;18.30;;;;;;;;;;5116731;28;20457;-61
2021/04/30 10:44:59;;;;;;;21.73;19.50;;;;;;;;;;5116339;28;20457;-61
2021/04/30 10:47:26;;;;;;;20.63;18.70;;;;;;;;;;5115744;28;20495;-60
2021/04/30 10:50:12;;;;;;;21.53;19.33;;;;;;;;;;5115819;28;20450;-61
2021/04/30 10:52:39;;;;;;;21.10;19.10;;;;;;;;;;5115941;28;20438;-62
2021/04/30 10:55:08;;;;;;;20.10;18.07;;;;;;;;;;5115617;28;20452;-61
2021/04/30 10:57:51;;;;;;;19.40;17.50;;;;;;;;;;5117068;28;20465;-61
2021/04/30 11:00:19;;;;;;;20.73;17.00;;;;;;;;;;5120137;28;20445;-61
2021/04/30 11:02:46;;;;;;;20.30;18.20;;;;;;;;;;5119812;28;20518;-61
2021/04/30 11:05:17;;;;;;;17.90;16.00;;;;;;;;;;5116789;28;20450;-61
2021/04/30 11:07:47;;;;;;;17.83;16.13;;;;;;;;;;5115518;28;20561;-61
2021/04/30 11:10:32;;;;;;;18.30;16.47;;;;;;;;;;5116409;28;20452;-61
2021/04/30 11:13:01;;;;;;;18.30;15.60;;;;;;;;;;5117012;28;20443;-60
2021/04/30 11:15:30;;;;;;;17.63;15.83;;;;;;;;;;5116882;28;20448;-60
2021/04/30 11:17:58;;;;;;;18.70;16.90;;;;;;;;;;5116779;28;20435;-62
2021/04/30 11:20:25;;;;;;;19.17;17.27;;;;;;;;;;5117191;28;20205;-61
2021/04/30 11:23:15;;;;;;;20.37;17.83;;;;;;;;;;5121329;28;20515;-64
2021/04/30 11:26:05;;;;;;;17.83;16.10;;;;;;;;;;5120707;28;20441;-62
2021/04/30 11:28:50;;;;;;;17.37;15.77;;;;;;;;;;5104877;28;20486;-60
2021/04/30 11:31:26;;;;;;;15.60;14.00;;;;;;;;;;5117593;28;20453;-62
2021/04/30 11:34:07;;;;;;;17.20;15.40;;;;;;;;;;5116667;28;20428;-60
2021/04/30 11:36:34;;;;;;;17.70;15.90;;;;;;;;;;5116609;28;20442;-63
2021/04/30 11:39:14;;;;;;;17.13;15.43;;;;;;;;;;5115208;28;20472;-62
2021/04/30 11:41:41;;;;;;;17.23;15.70;;;;;;;;;;5115176;28;20426;-62
2021/04/30 11:44:08;;;;;;;19.10;17.03;;;;;;;;;;5115051;28;20440;-61
2021/04/30 11:46:38;;;;;;;20.37;17.00;;;;;;;;;;5114847;28;20451;-61
2021/04/30 11:49:04;;;;;;;17.00;15.30;;;;;;;;;;5114613;28;20472;-61
2021/04/30 11:51:31;;;;;;;18.50;16.70;;;;;;;;;;5114790;28;20448;-61
2021/04/30 11:53:59;;;;;;;19.27;16.83;;;;;;;;;;5115924;28;20470;-61
2021/04/30 11:56:30;;;;;;;16.40;14.80;;;;;;;;;;5117965;28;20455;-63
2021/04/30 11:58:57;;;;;;;19.30;15.70;;;;;;;;;;5117156;28;20468;-60
2021/04/30 12:01:26;;;;;;;16.27;14.67;;;;;;;;;;5115075;28;20440;-62
2021/04/30 12:03:55;;;;;;;17.00;15.40;;;;;;;;;;5115255;28;20452;-60
2021/04/30 12:06:23;;;;;;;17.03;14.67;;;;;;;;;;5114940;28;20487;-64
2021/04/30 12:08:50;;;;;;;18.83;16.97;;;;;;;;;;5115070;28;20463;-62
2021/04/30 12:11:23;;;;;;;18.67;16.77;;;;;;;;;;5116267;28;20447;-62
2021/04/30 12:13:50;;;;;;;18.57;16.77;;;;;;;;;;5115663;28;20426;-62
2021/04/30 12:16:17;;;;;;;18.10;16.40;;;;;;;;;;5115341;28;20443;-61
2021/04/30 12:18:45;;;;;;;17.47;15.73;;;;;;;;;;5115842;28;20462;-64
2021/04/30 12:21:13;;;;;;;18.30;16.43;;;;;;;;;;5118363;28;20440;-61
2021/04/30 12:23:39;;;;;;;17.17;15.47;;;;;;;;;;5120738;28;20452;-61
2021/04/30 12:26:06;;;;;;;17.40;15.60;;;;;;;;;;5118221;28;20459;-63
2021/04/30 12:28:34;;;;;;;16.40;14.70;;;;;;;;;;5119959;28;20544;-62
2021/04/30 12:31:02;;;;;;;17.23;15.50;;;;;;;;;;5124323;28;20441;-62
2021/04/30 12:33:33;;;;;;;17.80;15.93;;;;;;;;;;5122607;28;20452;-62
2021/04/30 12:36:00;;;;;;;16.40;14.80;;;;;;;;;;5122742;28;20428;-62
2021/04/30 12:38:28;;;;;;;13.77;12.53;;;;;;;;;;5121645;28;20455;-62
2021/04/30 12:40:55;;;;;;;15.30;13.80;;;;;;;;;;5122660;28;20459;-60
2021/04/30 12:43:26;;;;;;;15.03;13.60;;;;;;;;;;5123021;28;20451;-61
2021/04/30 12:45:53;;;;;;;16.97;15.27;;;;;;;;;;5121512;28;20439;-61
2021/04/30 12:48:21;;;;;;;14.27;12.87;;;;;;;;;;5120515;28;20487;-62
2021/04/30 12:50:48;;;;;;;13.97;12.67;;;;;;;;;;5122469;28;20444;-61
2021/04/30 12:53:14;;;;;;;15.07;13.77;;;;;;;;;;5120624;28;20455;-62
2021/04/30 12:55:42;;;;;;;14.90;13.37;;;;;;;;;;5118471;28;20444;-61
2021/04/30 12:58:14;;;;;;;16.27;14.70;;;;;;;;;;5117499;28;20986;-61
2021/04/30 13:01:10;;;;;;;15.97;14.40;;;;;;;;;;5118195;28;20476;-60
2021/04/30 13:03:40;;;;;;;15.80;14.40;;;;;;;;;;5094110;28;20559;-62
2021/04/30 13:06:08;;;;;;;15.50;14.10;;;;;;;;;;5117317;28;20501;-62
2021/04/30 13:08:36;;;;;;;15.80;14.30;;;;;;;;;;5117985;28;20485;-62
2021/04/30 13:11:05;;;;;;;16.03;14.63;;;;;;;;;;5117381;28;20452;-62
2021/04/30 13:13:32;;;;;;;14.80;13.30;;;;;;;;;;5117579;28;20996;-59
2021/04/30 13:16:03;;;;;;;12.67;11.40;;;;;;;;;;5117701;28;20497;-60
2021/04/30 13:18:30;;;;;;;14.30;13.00;;;;;;;;;;5118580;28;20464;-59
2021/04/30 13:20:57;;;;;;;19.20;17.30;;;;;;;;;;5118536;28;20455;-60
2021/04/30 13:23:32;;;;;;;16.23;14.50;;;;;;;;;;5118071;28;20449;-60
2021/04/30 13:25:59;;;;;;;16.57;14.90;;;;;;;;;;5117423;28;20428;-60
2021/04/30 13:28:30;;;;;;;16.17;14.77;;;;;;;;;;5117259;28;20480;-60
2021/04/30 13:30:57;;;;;;;18.40;16.60;;;;;;;;;;5122773;28;20440;-60
2021/04/30 13:33:25;;;;;;;17.67;16.07;;;;;;;;;;5123232;28;20446;-60
2021/04/30 13:35:53;;;;;;;17.07;15.37;;;;;;;;;;5123029;28;20479;-60
2021/04/30 13:38:20;;;;;;;15.83;14.23;;;;;;;;;;5122096;28;20462;-61
2021/04/30 13:40:47;;;;;;;17.17;15.43;;;;;;;;;;5121649;28;20839;-59
2021/04/30 13:43:14;;;;;;;15.10;13.73;;;;;;;;;;5122245;28;20445;-59
2021/04/30 13:45:42;;;;;;;14.33;12.93;;;;;;;;;;5122836;28;20498;-62
2021/04/30 13:48:09;;;;;;;12.97;11.77;;;;;;;;;;5123292;28;20485;-61
2021/04/30 13:50:36;;;;;;;13.70;12.40;;;;;;;;;;5123834;28;20452;-62
2021/04/30 13:53:04;;;;;;;12.27;11.17;;;;;;;;;;5125057;28;20492;-62
2021/04/30 13:55:31;;;;;;;15.30;13.80;;;;;;;;;;5123590;28;20450;-60
2021/04/30 13:57:58;;;;;;;14.40;13.10;;;;;;;;;;5124250;28;20461;-60
2021/04/30 14:00:25;;;;;;;15.07;13.67;;;;;;;;;;5124077;28;20442;-61
2021/04/30 14:02:54;;;;;;;15.67;14.30;;;;;;;;;;5122765;28;20826;-61
2021/04/30 14:05:21;;;;;;;13.77;12.47;;;;;;;;;;5122153;28;20441;-61
2021/04/30 14:07:50;;;;;;;13.60;12.20;;;;;;;;;;5119938;28;20481;-61
2021/04/30 14:10:18;;;;;;;13.83;12.47;;;;;;;;;;5121825;28;21003;-61
2021/04/30 14:12:45;;;;;;;12.97;11.77;;;;;;;;;;5138167;22;20490;-59
2021/04/30 14:15:12;;;;;;;13.70;12.40;;;;;;;;;;5094999;28;20812;-58
2021/04/30 14:17:40;;;;;;;17.33;15.63;;;;;;;;;;5094374;28;20930;-58
2021/04/30 14:20:08;;;;;;;16.40;15.00;;;;;;;;;;5094799;28;20465;-58
2021/04/30 14:22:35;;;;;;;19.53;17.00;;;;;;;;;;5094498;28;20481;-60
2021/04/30 14:25:01;;;;;;;16.70;15.10;;;;;;;;;;5094354;28;20474;-59